Time;durP1;ratioP1;P1;durP2;ratioP2;P2;SDS_P1;SDS_P2;PMS_P1;PMS_P2;Temp;Humidity;BMP_temperature;BMP_pressure;BME280_temperature;BME280_humidity;BME280_pressure;Samples;Min_cycle;Max_cycle;Signal;HPM_P1;HPM_P2
2021/09/17 00:01:52;;;;;;;61.65;43.22;;;16.30;99.90;;;;;;4992860;28;25094;-76
2021/09/17 00:04:18;;;;;;;58.20;42.92;;;16.30;99.90;;;;;;4987216;28;25081;-75
2021/09/17 00:06:43;;;;;;;65.20;43.38;;;16.30;99.90;;;;;;4979340;28;25061;-75
2021/09/17 00:09:09;;;;;;;58.30;41.83;;;16.30;99.90;;;;;;4986628;28;25079;-74
2021/09/17 00:11:35;;;;;;;57.25;42.13;;;16.30;99.90;;;;;;4982222;28;25091;-75
2021/09/17 00:14:00;;;;;;;57.97;41.42;;;16.30;99.90;;;;;;4980325;28;25082;-75
2021/09/17 00:16:26;;;;;;;57.50;41.10;;;16.30;99.90;;;;;;4978595;28;25081;-75
2021/09/17 00:18:52;;;;;;;54.63;40.40;;;16.30;99.90;;;;;;4990143;28;25142;-75
2021/09/17 00:21:18;;;;;;;55.92;41.25;;;16.30;99.90;;;;;;4991137;28;25076;-76
2021/09/17 00:23:44;;;;;;;58.35;40.58;;;16.30;99.90;;;;;;5000301;28;25112;-75
2021/09/17 00:26:09;;;;;;;55.33;41.17;;;16.40;99.90;;;;;;4992218;28;25069;-75
2021/09/17 00:28:35;;;;;;;57.70;40.97;;;16.40;99.90;;;;;;4989563;28;25070;-75
2021/09/17 00:31:01;;;;;;;53.65;39.83;;;16.30;99.90;;;;;;4994322;28;25086;-76
2021/09/17 00:33:26;;;;;;;54.47;39.75;;;16.30;99.90;;;;;;4996028;28;25112;-75
2021/09/17 00:35:52;;;;;;;53.70;39.95;;;16.30;99.90;;;;;;4999916;28;25055;-75
2021/09/17 00:38:18;;;;;;;60.67;42.42;;;16.30;99.90;;;;;;4990008;28;25148;-75
2021/09/17 00:40:44;;;;;;;54.97;39.05;;;16.30;99.90;;;;;;4992087;28;25135;-75
2021/09/17 00:43:10;;;;;;;51.67;39.00;;;16.30;99.90;;;;;;4989586;28;25056;-75
2021/09/17 00:45:37;;;;;;;53.25;39.58;;;16.30;99.90;;;;;;5011334;28;25123;-77
2021/09/17 00:48:04;;;;;;;61.65;42.60;;;16.30;99.90;;;;;;4990457;28;25087;-75
2021/09/17 00:50:29;;;;;;;62.30;44.58;;;16.30;99.90;;;;;;4990014;28;25084;-76
2021/09/17 00:52:56;;;;;;;60.70;41.13;;;16.20;99.90;;;;;;4990732;28;25100;-75
2021/09/17 00:55:22;;;;;;;56.72;41.33;;;16.20;99.90;;;;;;4993595;28;25055;-75
2021/09/17 00:57:48;;;;;;;57.42;42.45;;;16.20;99.90;;;;;;4992768;28;25147;-76
2021/09/17 01:00:14;;;;;;;61.33;42.30;;;16.30;99.90;;;;;;4991421;28;25057;-75
2021/09/17 01:02:43;;;;;;;50.75;38.97;;;16.50;99.90;;;;;;4992695;28;25122;-75
2021/09/17 01:05:10;;;;;;;52.83;39.50;;;16.60;99.90;;;;;;4993561;28;25107;-73
2021/09/17 01:07:35;;;;;;;53.50;40.53;;;16.80;99.90;;;;;;4993404;28;25056;-75
2021/09/17 01:10:03;;;;;;;54.22;39.40;;;16.70;99.90;;;;;;4993120;28;25062;-75
2021/09/17 01:12:29;;;;;;;60.30;42.67;;;16.70;99.90;;;;;;4992033;28;25147;-76
2021/09/17 01:14:55;;;;;;;56.38;41.60;;;16.60;99.90;;;;;;4994706;28;25066;-75
2021/09/17 01:17:21;;;;;;;52.30;41.15;;;16.60;99.90;;;;;;4991914;28;25056;-74
2021/09/17 01:19:47;;;;;;;54.30;41.45;;;16.60;99.90;;;;;;4998892;28;25098;-74
2021/09/17 01:22:12;;;;;;;52.30;39.33;;;16.60;99.90;;;;;;4991026;28;25070;-75
2021/09/17 01:24:39;;;;;;;53.03;39.72;;;16.60;99.90;;;;;;4998744;28;25142;-76
2021/09/17 01:27:06;;;;;;;55.85;41.00;;;16.60;99.90;;;;;;4985946;28;25031;-74
2021/09/17 01:29:33;;;;;;;56.28;42.58;;;16.60;99.90;;;;;;4993976;28;25063;-74
2021/09/17 01:32:00;;;;;;;59.97;44.55;;;16.70;99.90;;;;;;4990589;28;25061;-75
2021/09/17 01:34:26;;;;;;;56.85;42.00;;;16.60;99.90;;;;;;5001014;28;25134;-74
2021/09/17 01:36:52;;;;;;;54.22;40.13;;;16.60;99.90;;;;;;4992680;28;25144;-75
2021/09/17 01:39:20;;;;;;;52.55;40.42;;;16.70;99.90;;;;;;4992601;28;25050;-77
2021/09/17 01:41:47;;;;;;;56.95;42.15;;;16.70;99.90;;;;;;4997295;28;25063;-74
2021/09/17 01:44:13;;;;;;;55.83;41.97;;;16.60;99.90;;;;;;4997438;28;25528;-75
2021/09/17 01:46:39;;;;;;;60.33;46.78;;;16.60;99.90;;;;;;5006264;28;25063;-74
2021/09/17 01:49:04;;;;;;;62.67;46.13;;;16.50;99.90;;;;;;4992259;28;25073;-75
2021/09/17 01:51:30;;;;;;;56.88;44.22;;;16.50;99.90;;;;;;4993510;28;25056;-74
2021/09/17 01:53:56;;;;;;;64.45;44.05;;;16.50;99.90;;;;;;4995362;28;25159;-74
2021/09/17 01:56:23;;;;;;;57.50;41.72;;;16.60;99.90;;;;;;4992728;28;25528;-74
2021/09/17 01:58:49;;;;;;;57.75;42.30;;;16.70;99.90;;;;;;4991942;28;25099;-75
2021/09/17 02:01:15;;;;;;;60.20;43.05;;;16.70;99.90;;;;;;4991451;28;25068;-73
2021/09/17 02:03:41;;;;;;;61.22;42.65;;;16.70;99.90;;;;;;5008883;28;25052;-74
2021/09/17 02:06:07;;;;;;;58.22;44.47;;;16.70;99.90;;;;;;4987843;28;25151;-75
2021/09/17 02:08:32;;;;;;;55.85;41.90;;;16.70;99.90;;;;;;4985882;28;25094;-75
2021/09/17 02:10:58;;;;;;;61.20;44.00;;;16.70;99.90;;;;;;4992543;28;25106;-75
2021/09/17 02:13:24;;;;;;;59.85;45.17;;;16.80;99.90;;;;;;4988754;28;25130;-75
2021/09/17 02:15:52;;;;;;;54.13;40.00;;;16.70;99.90;;;;;;4987368;28;25076;-75
2021/09/17 02:18:18;;;;;;;58.92;42.95;;;16.60;99.90;;;;;;4991133;28;25113;-76
2021/09/17 02:20:46;;;;;;;54.35;42.42;;;16.70;99.90;;;;;;4995704;28;25062;-74
2021/09/17 02:23:12;;;;;;;53.20;41.17;;;16.80;99.90;;;;;;4992039;28;25077;-74
2021/09/17 02:25:37;;;;;;;56.17;41.95;;;16.90;99.90;;;;;;4992984;28;25075;-74
2021/09/17 02:28:03;;;;;;;58.60;42.67;;;16.80;99.90;;;;;;4992203;28;25087;-74
2021/09/17 02:30:29;;;;;;;54.83;41.25;;;16.90;99.90;;;;;;4993683;28;25140;-74
2021/09/17 02:32:56;;;;;;;55.63;42.40;;;16.90;99.90;;;;;;4992656;28;25071;-75
2021/09/17 02:35:21;;;;;;;54.92;41.92;;;16.90;99.90;;;;;;4991609;28;25052;-74
2021/09/17 02:37:47;;;;;;;57.03;41.20;;;16.90;99.90;;;;;;4992607;28;25136;-73
2021/09/17 02:40:15;;;;;;;52.83;40.63;;;16.80;99.90;;;;;;5003571;28;25077;-74
2021/09/17 02:42:42;;;;;;;59.88;42.35;;;16.70;99.90;;;;;;4995177;28;25070;-76
2021/09/17 02:45:09;;;;;;;54.97;41.25;;;16.60;99.90;;;;;;5002888;28;25082;-74
2021/09/17 02:47:35;;;;;;;54.38;42.67;;;16.60;99.90;;;;;;4991991;28;25083;-74
2021/09/17 02:50:02;;;;;;;59.88;42.95;;;16.60;99.90;;;;;;4990415;28;25073;-73
2021/09/17 02:52:27;;;;;;;56.47;41.47;;;16.70;99.90;;;;;;4990156;28;25102;-74
2021/09/17 02:54:53;;;;;;;56.85;42.45;;;16.80;99.90;;;;;;4977962;28;25168;-75
2021/09/17 02:57:19;;;;;;;55.80;39.90;;;16.90;99.90;;;;;;4991547;28;25064;-75
2021/09/17 02:59:45;;;;;;;58.33;42.40;;;16.90;99.90;;;;;;4986817;28;25065;-74
2021/09/17 03:02:12;;;;;;;54.70;40.28;;;16.90;99.90;;;;;;4985989;28;25072;-74
2021/09/17 03:04:37;;;;;;;54.90;39.25;;;16.80;99.90;;;;;;4990454;28;25067;-75
2021/09/17 03:07:03;;;;;;;55.15;41.10;;;16.70;99.90;;;;;;4991339;28;25061;-75
2021/09/17 03:09:29;;;;;;;53.08;39.33;;;16.70;99.90;;;;;;4990407;28;25083;-74
2021/09/17 03:11:55;;;;;;;60.17;42.28;;;16.70;99.90;;;;;;4987072;28;25087;-73
2021/09/17 03:14:21;;;;;;;58.75;43.58;;;16.70;99.90;;;;;;4972851;28;25067;-75
2021/09/17 03:16:48;;;;;;;61.05;43.17;;;16.60;99.90;;;;;;4981999;28;25077;-75
2021/09/17 03:19:13;;;;;;;61.40;43.10;;;16.60;99.90;;;;;;4988163;28;25110;-73
2021/09/17 03:21:39;;;;;;;61.15;42.60;;;16.60;99.90;;;;;;4983133;28;25105;-74
2021/09/17 03:24:05;;;;;;;59.72;42.30;;;16.50;99.90;;;;;;4990366;28;25152;-75
2021/09/17 03:26:30;;;;;;;56.35;42.33;;;16.50;99.90;;;;;;4989960;28;25053;-75
2021/09/17 03:28:56;;;;;;;57.15;42.90;;;16.50;99.90;;;;;;4990287;28;25074;-75
2021/09/17 03:31:21;;;;;;;59.75;45.10;;;16.50;99.90;;;;;;4990773;28;25077;-76
2021/09/17 03:33:47;;;;;;;56.80;41.45;;;16.50;99.90;;;;;;4989946;28;25088;-75
2021/09/17 03:36:14;;;;;;;61.55;42.83;;;16.50;99.90;;;;;;4990869;28;25143;-75
2021/09/17 03:38:40;;;;;;;57.97;42.08;;;16.50;99.90;;;;;;4990133;28;25054;-75
2021/09/17 03:41:08;;;;;;;56.08;40.97;;;16.60;99.90;;;;;;4988137;28;25113;-74
2021/09/17 03:43:34;;;;;;;55.78;40.83;;;16.50;99.90;;;;;;4990276;28;25082;-74
2021/09/17 03:45:59;;;;;;;59.55;42.22;;;16.50;99.90;;;;;;4981057;28;25049;-75
2021/09/17 03:48:25;;;;;;;54.33;40.83;;;16.40;99.90;;;;;;4985280;28;25158;-74
2021/09/17 03:50:51;;;;;;;54.33;40.67;;;16.40;99.90;;;;;;4980747;28;25049;-75
2021/09/17 03:53:17;;;;;;;51.30;37.95;;;16.40;99.90;;;;;;4979993;28;25161;-75
2021/09/17 03:55:43;;;;;;;54.70;40.30;;;16.50;99.90;;;;;;4994241;28;25175;-74
2021/09/17 03:58:09;;;;;;;52.35;38.40;;;16.60;99.90;;;;;;4978188;28;25153;-75
2021/09/17 04:00:36;;;;;;;51.10;38.10;;;16.50;99.90;;;;;;4979419;28;25150;-74
2021/09/17 04:03:02;;;;;;;61.47;39.47;;;16.50;99.90;;;;;;4987990;28;25085;-73
2021/09/17 04:05:28;;;;;;;50.65;36.67;;;16.50;99.90;;;;;;4984051;28;25117;-75
2021/09/17 04:07:53;;;;;;;54.10;39.47;;;16.50;99.90;;;;;;4992123;28;25163;-74
2021/09/17 04:10:19;;;;;;;49.00;37.28;;;16.40;99.90;;;;;;4990301;28;25080;-75
2021/09/17 04:12:45;;;;;;;52.53;38.45;;;16.40;99.90;;;;;;4990894;28;25081;-75
2021/09/17 04:15:12;;;;;;;50.50;38.15;;;16.40;99.90;;;;;;4992645;28;25073;-74
2021/09/17 04:17:38;;;;;;;54.20;38.15;;;16.40;99.90;;;;;;4989982;28;25118;-75
2021/09/17 04:20:05;;;;;;;54.63;38.30;;;16.40;99.90;;;;;;4981595;28;25073;-74
2021/09/17 04:22:31;;;;;;;47.70;35.92;;;16.50;99.90;;;;;;4988802;28;25075;-74
2021/09/17 04:24:56;;;;;;;52.25;37.38;;;16.60;99.90;;;;;;4989297;28;25051;-74
2021/09/17 04:27:25;;;;;;;50.78;37.53;;;16.50;99.90;;;;;;4990939;28;25070;-74
2021/09/17 04:29:51;;;;;;;50.08;38.58;;;16.50;99.90;;;;;;4987730;28;25061;-76
2021/09/17 04:32:17;;;;;;;52.38;35.60;;;16.50;99.90;;;;;;4994354;28;25094;-77
2021/09/17 04:34:42;;;;;;;46.05;35.38;;;16.50;99.90;;;;;;4993049;28;25131;-75
2021/09/17 04:37:08;;;;;;;47.97;36.17;;;16.60;99.90;;;;;;4991870;28;25075;-74
2021/09/17 04:39:34;;;;;;;46.33;36.08;;;16.50;99.90;;;;;;4994149;28;25084;-74
2021/09/17 04:42:00;;;;;;;43.38;33.78;;;16.60;99.90;;;;;;4993449;28;25080;-74
2021/09/17 04:44:25;;;;;;;41.38;32.35;;;16.60;99.90;;;;;;4987423;28;25076;-74
2021/09/17 04:46:51;;;;;;;44.90;31.38;;;16.70;99.90;;;;;;4989026;28;25080;-74
2021/09/17 04:49:16;;;;;;;42.63;34.20;;;16.80;99.90;;;;;;4988378;28;25136;-76
2021/09/17 04:51:42;;;;;;;40.80;32.22;;;16.80;99.90;;;;;;4991420;28;25139;-73
2021/09/17 04:54:09;;;;;;;44.42;34.17;;;16.80;99.90;;;;;;4989396;28;25070;-74
2021/09/17 04:56:38;;;;;;;49.08;35.22;;;16.80;99.90;;;;;;5006781;28;25062;-74
2021/09/17 04:59:06;;;;;;;41.78;32.78;;;16.80;99.90;;;;;;5017440;28;25072;-74
2021/09/17 05:01:38;;;;;;;43.20;34.97;;;16.80;99.90;;;;;;5015376;28;25079;-74
2021/09/17 05:04:11;;;;;;;44.78;34.63;;;16.80;99.90;;;;;;4993783;28;25116;-74
2021/09/17 05:06:38;;;;;;;44.13;33.92;;;16.80;99.90;;;;;;4993390;28;25048;-74
2021/09/17 05:09:04;;;;;;;43.70;35.03;;;16.80;99.90;;;;;;4989253;28;25068;-74
2021/09/17 05:11:29;;;;;;;45.90;35.95;;;16.80;99.90;;;;;;4990042;28;25048;-75
2021/09/17 05:13:55;;;;;;;48.65;35.20;;;16.80;99.90;;;;;;4990300;28;25122;-76
2021/09/17 05:16:21;;;;;;;48.53;35.47;;;16.70;99.90;;;;;;4987932;28;25071;-75
2021/09/17 05:18:47;;;;;;;45.10;35.38;;;16.70;99.90;;;;;;4982953;28;25053;-74
2021/09/17 05:21:13;;;;;;;47.33;36.75;;;16.70;99.90;;;;;;4980639;28;25077;-74
2021/09/17 05:23:39;;;;;;;46.30;36.75;;;16.70;99.90;;;;;;4987531;28;25074;-74
2021/09/17 05:26:06;;;;;;;44.58;34.08;;;16.70;99.90;;;;;;4986502;28;25051;-75
2021/09/17 05:28:33;;;;;;;48.65;36.17;;;16.70;99.90;;;;;;4994784;28;25077;-73
2021/09/17 05:30:58;;;;;;;54.55;37.10;;;16.70;99.90;;;;;;4989325;28;25057;-76
2021/09/17 05:33:24;;;;;;;49.60;37.10;;;16.80;99.90;;;;;;4990820;28;25165;-74
2021/09/17 05:35:50;;;;;;;48.85;38.63;;;16.80;99.90;;;;;;4994431;28;25070;-74
2021/09/17 05:38:15;;;;;;;53.50;38.88;;;16.70;99.90;;;;;;4997798;28;25102;-75
2021/09/17 05:40:41;;;;;;;54.53;38.63;;;16.60;99.90;;;;;;4993394;28;25124;-74
2021/09/17 05:43:06;;;;;;;52.10;38.40;;;16.50;99.90;;;;;;5002181;28;25131;-75
2021/09/17 05:45:32;;;;;;;58.15;40.33;;;16.40;99.90;;;;;;4991711;28;25099;-75
2021/09/17 05:47:58;;;;;;;51.55;39.58;;;16.30;99.90;;;;;;4984362;28;25074;-74
2021/09/17 05:50:23;;;;;;;54.88;40.50;;;16.30;99.90;;;;;;4976445;28;25082;-75
2021/09/17 05:52:49;;;;;;;50.30;37.20;;;16.30;99.90;;;;;;4985886;28;25101;-76
2021/09/17 05:55:15;;;;;;;51.90;38.63;;;16.30;99.90;;;;;;4992917;28;25103;-74
2021/09/17 05:57:41;;;;;;;50.95;36.80;;;16.30;99.90;;;;;;4980579;28;25155;-75
2021/09/17 06:00:11;;;;;;;47.25;35.88;;;16.30;99.90;;;;;;5001638;28;25156;-75
2021/09/17 06:02:36;;;;;;;43.72;34.60;;;16.30;99.90;;;;;;4989823;28;25060;-75
2021/09/17 06:05:03;;;;;;;49.38;37.70;;;16.40;99.90;;;;;;4991849;28;25059;-76
2021/09/17 06:07:28;;;;;;;50.95;37.72;;;16.40;99.90;;;;;;4991970;28;25096;-74
2021/09/17 06:09:54;;;;;;;48.97;36.78;;;16.30;99.90;;;;;;4989140;28;25100;-75
2021/09/17 06:12:20;;;;;;;47.30;36.50;;;16.40;99.90;;;;;;4980966;28;25102;-75
2021/09/17 06:14:45;;;;;;;52.30;38.50;;;16.40;99.90;;;;;;4988564;28;25064;-74
2021/09/17 06:17:11;;;;;;;46.75;35.75;;;16.40;99.90;;;;;;4988792;28;25068;-74
2021/09/17 06:19:36;;;;;;;50.35;38.78;;;16.30;99.90;;;;;;4990641;28;25087;-73
2021/09/17 06:22:02;;;;;;;54.92;38.22;;;16.30;99.90;;;;;;4988208;28;25093;-75
2021/09/17 06:24:29;;;;;;;50.40;38.63;;;16.30;99.90;;;;;;4990325;28;25073;-74
2021/09/17 06:26:54;;;;;;;50.05;40.47;;;16.30;99.90;;;;;;4988029;28;25102;-74
2021/09/17 06:29:20;;;;;;;53.30;37.47;;;16.20;99.90;;;;;;4987926;28;25126;-75
2021/09/17 06:31:46;;;;;;;48.92;38.20;;;16.20;99.90;;;;;;4986981;28;25072;-75
2021/09/17 06:34:11;;;;;;;53.47;39.83;;;16.20;99.90;;;;;;4990623;28;25081;-74
2021/09/17 06:36:37;;;;;;;53.70;38.88;;;16.20;99.90;;;;;;4988155;28;25133;-75
2021/09/17 06:39:03;;;;;;;50.10;38.95;;;16.10;99.90;;;;;;4988179;28;25142;-77
2021/09/17 06:41:29;;;;;;;45.22;36.03;;;16.10;99.90;;;;;;4990855;28;25144;-74
2021/09/17 06:43:55;;;;;;;54.42;39.28;;;16.20;99.90;;;;;;4985389;28;25067;-75
2021/09/17 06:46:20;;;;;;;56.00;40.65;;;16.40;99.90;;;;;;4990139;28;25073;-74
2021/09/17 06:48:46;;;;;;;53.88;39.92;;;16.40;99.90;;;;;;4987018;28;25069;-75
2021/09/17 06:51:11;;;;;;;50.63;37.83;;;16.40;99.90;;;;;;4987606;28;25061;-74
2021/09/17 06:53:37;;;;;;;56.97;41.17;;;16.30;99.90;;;;;;4987538;28;25117;-76
2021/09/17 06:56:04;;;;;;;56.17;41.88;;;16.50;99.90;;;;;;4988586;28;25078;-74
2021/09/17 06:58:31;;;;;;;56.70;41.80;;;16.40;99.90;;;;;;4990001;28;25071;-75
2021/09/17 07:01:00;;;;;;;60.53;43.10;;;16.30;99.90;;;;;;4985360;28;25041;-74
2021/09/17 07:03:26;;;;;;;57.97;44.13;;;16.20;99.90;;;;;;4987327;28;25161;-73
2021/09/17 07:05:51;;;;;;;62.28;42.95;;;16.20;99.90;;;;;;4988515;28;25066;-74
2021/09/17 07:08:20;;;;;;;59.90;42.97;;;16.20;99.90;;;;;;4993477;28;25048;-74
2021/09/17 07:10:47;;;;;;;61.70;45.35;;;16.20;99.90;;;;;;4994319;28;25077;-73
2021/09/17 07:13:13;;;;;;;77.03;46.15;;;16.30;99.90;;;;;;4996236;28;25072;-75
2021/09/17 07:15:39;;;;;;;61.95;44.65;;;16.30;99.90;;;;;;4997031;28;25400;-74
2021/09/17 07:18:05;;;;;;;63.92;43.88;;;16.30;99.90;;;;;;4993271;28;25075;-74
2021/09/17 07:20:31;;;;;;;62.15;44.40;;;16.30;99.90;;;;;;4984451;28;25076;-74
2021/09/17 07:22:57;;;;;;;62.92;45.33;;;16.30;99.90;;;;;;4986038;28;25077;-75
2021/09/17 07:25:23;;;;;;;76.50;48.50;;;16.40;99.90;;;;;;4987867;28;25129;-74
2021/09/17 07:27:48;;;;;;;63.53;46.42;;;16.40;99.90;;;;;;4987076;28;25062;-75
2021/09/17 07:30:15;;;;;;;67.72;46.28;;;16.40;99.90;;;;;;4988823;28;25154;-74
2021/09/17 07:32:41;;;;;;;66.53;47.75;;;16.60;99.90;;;;;;4988714;28;25184;-74
2021/09/17 07:35:07;;;;;;;62.65;45.00;;;16.60;99.90;;;;;;5001042;28;25087;-74
2021/09/17 07:37:33;;;;;;;72.53;47.95;;;16.70;99.90;;;;;;4986847;28;25142;-74
2021/09/17 07:39:59;;;;;;;67.85;44.80;;;16.60;99.90;;;;;;4985771;28;25069;-74
2021/09/17 07:42:24;;;;;;;69.13;49.90;;;16.80;99.90;;;;;;5004408;28;25122;-75
2021/09/17 07:44:50;;;;;;;71.20;48.97;;;16.80;99.90;;;;;;4986362;28;25080;-73
2021/09/17 07:47:16;;;;;;;85.50;53.45;;;16.90;99.90;;;;;;4986519;28;25078;-74
2021/09/17 07:49:42;;;;;;;90.40;54.10;;;16.90;99.90;;;;;;4985913;28;25131;-74
2021/09/17 07:52:08;;;;;;;97.97;59.95;;;17.10;99.90;;;;;;4986515;28;25085;-74
2021/09/17 07:54:33;;;;;;;107.50;60.25;;;17.10;99.90;;;;;;4987031;28;25084;-74
2021/09/17 07:56:59;;;;;;;105.13;59.47;;;17.10;99.90;;;;;;4987762;28;25111;-74
2021/09/17 07:59:25;;;;;;;104.95;63.08;;;17.10;99.90;;;;;;4987583;28;25141;-73
2021/09/17 08:01:51;;;;;;;104.72;60.83;;;17.10;99.90;;;;;;4988649;28;25119;-73
2021/09/17 08:04:17;;;;;;;111.78;61.72;;;17.00;99.90;;;;;;5000573;28;25088;-74
2021/09/17 08:06:43;;;;;;;101.47;57.33;;;17.10;99.90;;;;;;4989282;28;25092;-75
2021/09/17 08:09:08;;;;;;;108.95;56.95;;;17.30;99.90;;;;;;4988844;28;25077;-75
2021/09/17 08:11:35;;;;;;;99.20;56.58;;;17.50;99.90;;;;;;4986950;28;25092;-75
2021/09/17 08:14:01;;;;;;;104.60;56.67;;;17.60;99.90;;;;;;4992981;28;25153;-74
2021/09/17 08:16:27;;;;;;;101.40;59.50;;;17.60;99.90;;;;;;4988726;28;24815;-75
2021/09/17 08:18:52;;;;;;;103.63;59.83;;;17.60;99.90;;;;;;4988878;28;25143;-74
2021/09/17 08:21:18;;;;;;;98.28;57.63;;;17.70;99.90;;;;;;4988931;28;25068;-73
2021/09/17 08:23:44;;;;;;;92.93;55.17;;;17.80;99.90;;;;;;4988399;28;25074;-75
2021/09/17 08:26:10;;;;;;;100.13;56.03;;;17.90;99.90;;;;;;4989367;28;25081;-74
2021/09/17 08:28:35;;;;;;;94.57;54.17;;;17.90;99.90;;;;;;4988595;28;25168;-75
2021/09/17 08:31:03;;;;;;;91.25;53.22;;;17.90;99.90;;;;;;4987842;28;25106;-76
2021/09/17 08:33:30;;;;;;;85.68;50.60;;;18.10;99.90;;;;;;4985115;28;25160;-76
2021/09/17 08:35:58;;;;;;;93.80;51.50;;;18.30;99.90;;;;;;4991985;28;25067;-76
2021/09/17 08:38:23;;;;;;;87.95;50.35;;;18.50;99.90;;;;;;4986852;28;25073;-77
2021/09/17 08:40:54;;;;;;;89.53;51.20;;;18.50;99.90;;;;;;4988453;28;25137;-74
2021/09/17 08:43:22;;;;;;;91.95;51.90;;;18.70;99.90;;;;;;4987929;28;25056;-77
2021/09/17 08:45:47;;;;;;;88.90;50.75;;;19.10;99.90;;;;;;4987433;28;25057;-76
2021/09/17 08:48:16;;;;;;;85.80;49.55;;;19.40;99.90;;;;;;4990275;28;25078;-76
2021/09/17 08:50:43;;;;;;;83.30;46.03;;;19.20;99.90;;;;;;4988229;28;25101;-75
2021/09/17 08:53:09;;;;;;;77.03;45.78;;;19.30;99.90;;;;;;4987901;28;25063;-75
2021/09/17 08:55:35;;;;;;;76.80;46.40;;;19.50;99.90;;;;;;4989777;28;25069;-77
2021/09/17 08:58:01;;;;;;;80.70;46.22;;;19.30;99.90;;;;;;4988841;28;25138;-76
2021/09/17 09:00:26;;;;;;;85.53;49.58;;;19.50;99.90;;;;;;4989427;28;25107;-76
2021/09/17 09:02:57;;;;;;;80.38;46.08;;;19.50;99.90;;;;;;4989686;28;25075;-75
2021/09/17 09:05:41;;;;;;;78.40;45.70;;;19.70;99.90;;;;;;4989819;28;25146;-76
2021/09/17 09:08:07;;;;;;;79.32;45.45;;;19.30;99.90;;;;;;4986369;28;25102;-75
2021/09/17 09:10:34;;;;;;;77.95;46.33;;;19.60;99.90;;;;;;4988174;28;25094;-75
2021/09/17 09:13:05;;;;;;;89.53;49.72;;;19.70;99.90;;;;;;4987834;28;25069;-73
2021/09/17 09:15:32;;;;;;;74.68;47.00;;;19.70;99.90;;;;;;4988675;28;25054;-76
2021/09/17 09:18:07;;;;;;;76.25;44.83;;;19.70;99.90;;;;;;4995409;28;25069;-75
2021/09/17 09:20:41;;;;;;;77.38;45.83;;;19.90;99.90;;;;;;4980084;28;25067;-76
2021/09/17 09:23:26;;;;;;;79.25;48.45;;;20.10;99.90;;;;;;4986994;28;25067;-76
2021/09/17 09:25:55;;;;;;;85.00;48.17;;;19.50;99.90;;;;;;4980615;28;25097;-76
2021/09/17 09:28:23;;;;;;;71.43;45.08;;;19.50;99.90;;;;;;4988044;28;25062;-75
2021/09/17 09:30:51;;;;;;;70.38;44.67;;;19.40;99.90;;;;;;4991828;28;25076;-76
2021/09/17 09:33:29;;;;;;;63.17;40.42;;;19.50;99.90;;;;;;4993075;28;25155;-74
2021/09/17 09:36:05;;;;;;;61.58;41.50;;;19.30;99.90;;;;;;4986571;28;25091;-75
2021/09/17 09:38:48;;;;;;;56.05;37.50;;;19.50;99.90;;;;;;4998045;28;25079;-74
2021/09/17 09:41:24;;;;;;;53.67;34.83;;;19.50;99.90;;;;;;5011799;28;25050;-75
2021/09/17 09:43:58;;;;;;;55.17;34.63;;;19.50;99.90;;;;;;5006239;28;25050;-76
2021/09/17 09:46:35;;;;;;;53.15;34.30;;;19.30;99.90;;;;;;5007619;28;25105;-76
2021/09/17 09:49:04;;;;;;;52.67;33.33;;;19.20;99.90;;;;;;4998516;28;25073;-76
2021/09/17 09:51:32;;;;;;;56.33;33.33;;;19.40;99.90;;;;;;4996064;28;25065;-76
2021/09/17 09:54:00;;;;;;;61.42;35.90;;;19.40;99.90;;;;;;4992777;28;25147;-76
2021/09/17 09:56:27;;;;;;;57.42;34.90;;;19.10;99.90;;;;;;4984613;28;25077;-75
2021/09/17 09:58:53;;;;;;;56.60;36.28;;;19.10;99.90;;;;;;4988698;28;25062;-76
2021/09/17 10:01:21;;;;;;;59.38;37.25;;;19.30;99.90;;;;;;4995567;28;25073;-74
2021/09/17 10:03:49;;;;;;;59.10;37.22;;;19.40;99.90;;;;;;4994121;28;25102;-77
2021/09/17 10:06:15;;;;;;;54.13;36.72;;;19.50;99.90;;;;;;5004698;28;25083;-75
2021/09/17 10:08:46;;;;;;;70.40;41.15;;;19.50;99.90;;;;;;4995317;28;25152;-75
2021/09/17 10:11:13;;;;;;;59.88;37.65;;;19.50;99.90;;;;;;4995299;28;25060;-76
2021/09/17 10:13:38;;;;;;;52.10;31.58;;;19.40;99.90;;;;;;4998110;28;25090;-74
2021/09/17 10:16:05;;;;;;;54.28;35.08;;;19.20;99.90;;;;;;5024816;28;25076;-75
2021/09/17 10:18:31;;;;;;;52.00;31.65;;;19.40;99.90;;;;;;5013800;28;25075;-77
2021/09/17 10:20:57;;;;;;;53.30;32.45;;;19.30;99.90;;;;;;5016006;28;25072;-76
2021/09/17 10:23:30;;;;;;;44.72;31.08;;;19.40;99.90;;;;;;5013267;28;25056;-76
2021/09/17 10:26:09;;;;;;;49.97;34.42;;;19.40;99.90;;;;;;5008816;28;25071;-74
2021/09/17 10:29:04;;;;;;;48.35;31.70;;;19.40;99.90;;;;;;5005519;28;25061;-75
2021/09/17 10:31:53;;;;;;;46.30;31.15;;;19.40;99.90;;;;;;5007006;28;25058;-75
2021/09/17 10:34:36;;;;;;;51.88;33.30;;;19.30;99.90;;;;;;5000607;28;25078;-74
2021/09/17 10:37:03;;;;;;;47.42;31.60;;;19.40;99.90;;;;;;5009469;28;25056;-75
2021/09/17 10:39:29;;;;;;;44.88;29.85;;;19.50;99.90;;;;;;5010922;28;25055;-76
2021/09/17 10:42:17;;;;;;;43.25;30.65;;;19.50;99.90;;;;;;5004291;28;25083;-76
2021/09/17 10:45:15;;;;;;;46.67;30.10;;;19.70;99.90;;;;;;5006447;28;25056;-75
2021/09/17 10:47:41;;;;;;;46.22;29.10;;;19.80;99.90;;;;;;5007027;28;25068;-76
2021/09/17 10:50:14;;;;;;;41.72;27.50;;;19.80;99.90;;;;;;5012589;28;25115;-74
2021/09/17 10:52:42;;;;;;;45.20;29.67;;;19.90;99.90;;;;;;5007121;28;25076;-71
2021/09/17 10:55:28;;;;;;;40.03;28.40;;;20.10;99.90;;;;;;5005619;28;25060;-76
2021/09/17 10:58:27;;;;;;;40.78;28.55;;;20.10;99.90;;;;;;5004109;28;25069;-74
2021/09/17 11:00:55;;;;;;;38.97;26.42;;;20.10;99.90;;;;;;5006031;28;25087;-74
2021/09/17 11:03:38;;;;;;;44.60;28.30;;;20.30;99.90;;;;;;5001161;28;25097;-77
2021/09/17 11:06:26;;;;;;;42.50;28.70;;;20.50;99.90;;;;;;5000802;28;25087;-75
2021/09/17 11:08:54;;;;;;;45.63;28.38;;;20.70;99.90;;;;;;5001747;28;25050;-75
2021/09/17 11:11:27;;;;;;;41.97;28.70;;;20.90;99.90;;;;;;5004820;28;25068;-76
2021/09/17 11:13:55;;;;;;;45.55;29.40;;;20.90;99.90;;;;;;5001231;28;25068;-76
2021/09/17 11:16:23;;;;;;;43.92;29.17;;;20.80;99.90;;;;;;5002645;28;25080;-73
2021/09/17 11:19:05;;;;;;;46.08;29.98;;;20.80;99.90;;;;;;5001366;28;25069;-73
2021/09/17 11:21:37;;;;;;;36.42;25.13;;;20.80;99.90;;;;;;4994475;28;25056;-75
2021/09/17 11:24:20;;;;;;;41.37;27.47;;;21.00;99.90;;;;;;5003056;28;25078;-73
2021/09/17 11:26:49;;;;;;;37.00;25.80;;;20.90;99.90;;;;;;5003342;28;25072;-73
2021/09/17 11:29:16;;;;;;;42.30;27.52;;;21.20;99.90;;;;;;4988476;28;25080;-72
2021/09/17 11:31:46;;;;;;;39.13;26.20;;;21.40;99.90;;;;;;5001439;28;25088;-74
2021/09/17 11:34:14;;;;;;;40.92;27.08;;;21.60;99.90;;;;;;4993433;28;25081;-74
2021/09/17 11:36:43;;;;;;;35.35;24.40;;;21.90;99.90;;;;;;5004161;28;25161;-75
2021/09/17 11:39:25;;;;;;;36.92;24.73;;;22.30;99.90;;;;;;4981469;28;25080;-74
2021/09/17 11:41:55;;;;;;;40.15;25.55;;;22.80;99.90;;;;;;4989955;28;25102;-73
2021/09/17 11:44:43;;;;;;;40.83;27.48;;;23.20;99.90;;;;;;4980512;28;25082;-72
2021/09/17 11:47:12;;;;;;;37.60;26.90;;;22.70;99.90;;;;;;4988083;28;25141;-73
2021/09/17 11:49:42;;;;;;;38.35;28.20;;;22.90;99.90;;;;;;4974843;28;25129;-73
2021/09/17 11:52:10;;;;;;;39.45;27.60;;;23.20;99.90;;;;;;4988495;28;25099;-72
2021/09/17 11:54:36;;;;;;;40.78;27.95;;;23.30;99.90;;;;;;4990149;28;25056;-72
2021/09/17 11:57:11;;;;;;;42.38;27.40;;;23.40;99.90;;;;;;4980246;28;25141;-73
2021/09/17 11:59:45;;;;;;;36.17;27.00;;;23.20;99.90;;;;;;4990886;28;25100;-74
2021/09/17 12:02:18;;;;;;;39.85;24.58;;;23.40;99.90;;;;;;4989378;28;25067;-71
2021/09/17 12:04:58;;;;;;;34.47;25.45;;;23.90;99.90;;;;;;4989747;28;25138;-74
2021/09/17 12:07:25;;;;;;;37.67;23.95;;;24.00;99.90;;;;;;4989229;28;25140;-71
2021/09/17 12:09:51;;;;;;;34.67;24.80;;;24.00;99.90;;;;;;4988451;28;25137;-72
2021/09/17 12:12:17;;;;;;;33.47;25.17;;;23.60;99.90;;;;;;4989808;28;25075;-73
2021/09/17 12:14:56;;;;;;;35.90;24.23;;;23.30;99.90;;;;;;4989769;28;25062;-73
2021/09/17 12:17:23;;;;;;;30.48;23.58;;;23.50;99.90;;;;;;4989897;28;25074;-74
2021/09/17 12:20:05;;;;;;;30.17;23.15;;;23.70;99.90;;;;;;4989313;28;25146;-73
2021/09/17 12:22:38;;;;;;;37.83;24.92;;;23.90;99.90;;;;;;4988948;28;25050;-73
2021/09/17 12:25:03;;;;;;;33.47;23.48;;;23.80;99.90;;;;;;4988410;28;25136;-73
2021/09/17 12:27:30;;;;;;;29.60;21.55;;;24.20;99.90;;;;;;4987103;28;25084;-72
2021/09/17 12:29:58;;;;;;;30.10;21.88;;;23.80;99.90;;;;;;4987213;28;25064;-73